Time;durP1;ratioP1;P1;durP2;ratioP2;P2;SDS_P1;SDS_P2;PMS_P1;PMS_P2;Temp;Humidity;BMP_temperature;BMP_pressure;BME280_temperature;BME280_humidity;BME280_pressure;Samples;Min_cycle;Max_cycle;Signal;HPM_P1;HPM_P2
2023/04/25 00:02:03;;;;;;;18.70;8.07;;;;;;;14.50;41.94;150930.31;5118286;28;20118;-62
2023/04/25 00:04:29;;;;;;;16.27;8.55;;;;;;;14.57;41.42;150947.06;5108579;28;20043;-62
2023/04/25 00:06:55;;;;;;;18.73;8.95;;;;;;;14.60;42.04;150956.03;5126397;28;20200;-63
2023/04/25 00:09:21;;;;;;;14.85;7.25;;;;;;;14.57;42.75;150948.34;5126276;28;20034;-63
2023/04/25 00:11:47;;;;;;;17.17;7.47;;;;;;;14.44;42.47;150916.19;5112068;28;20109;-63
2023/04/25 00:14:13;;;;;;;18.25;8.82;;;;;;;14.40;43.07;150904.63;5130701;27;20224;-64
2023/04/25 00:16:40;;;;;;;19.60;8.50;;;;;;;14.26;43.40;150871.16;5125921;28;20058;-63
2023/04/25 00:19:07;;;;;;;20.35;8.23;;;;;;;14.47;43.22;150923.88;5125834;28;20031;-61
2023/04/25 00:21:33;;;;;;;22.25;8.68;;;;;;;14.51;43.42;150932.91;5126080;28;20020;-62
2023/04/25 00:23:59;;;;;;;11.60;7.82;;;;;;;14.56;43.36;150944.47;5110589;28;20035;-63
2023/04/25 00:26:25;;;;;;;18.02;8.77;;;;;;;14.50;43.01;150931.59;5116138;28;20039;-62
2023/04/25 00:28:51;;;;;;;16.48;8.63;;;;;;;14.44;43.00;150916.19;5107558;28;20034;-62
2023/04/25 00:31:16;;;;;;;14.68;8.85;;;;;;;14.24;44.18;150864.75;5125767;28;20031;-63
2023/04/25 00:33:42;;;;;;;17.80;8.63;;;;;;;14.33;43.86;150889.16;5107390;28;20024;-63
2023/04/25 00:36:08;;;;;;;17.40;9.75;;;;;;;14.28;45.07;150875.00;5125795;28;20189;-63
2023/04/25 00:38:33;;;;;;;19.13;8.25;;;;;;;14.18;45.00;150849.28;5125271;28;20087;-63
2023/04/25 00:40:59;;;;;;;21.17;9.32;;;;;;;14.24;44.99;150864.75;5118936;28;20024;-63
2023/04/25 00:43:32;;;;;;;18.10;9.63;;;;;;;14.17;44.38;150848.03;5107116;28;20028;-64
2023/04/25 00:46:00;;;;;;;16.20;9.40;;;;;;;14.19;44.64;150853.16;5125540;28;20028;-64
2023/04/25 00:48:26;;;;;;;14.23;9.10;;;;;;;14.23;44.95;150862.16;5125471;28;20034;-64
2023/04/25 00:50:54;;;;;;;18.75;9.65;;;;;;;14.03;46.08;150813.28;5111276;28;20031;-63
2023/04/25 00:53:24;;;;;;;22.83;9.27;;;;;;;14.04;45.09;150814.56;5112952;28;20067;-63
2023/04/25 00:55:50;;;;;;;16.90;9.27;;;;;;;14.09;45.40;150828.69;5119907;28;20024;-65
2023/04/25 00:58:21;;;;;;;16.50;9.32;;;;;;;14.21;45.81;150857.00;5105360;28;20032;-64
2023/04/25 01:00:48;;;;;;;16.63;9.50;;;;;;;14.12;46.34;150836.47;5125025;28;20066;-64
2023/04/25 01:03:16;;;;;;;21.02;9.30;;;;;;;14.04;46.52;150815.88;5108070;28;20130;-64
2023/04/25 01:05:42;;;;;;;20.52;9.25;;;;;;;14.06;46.17;150819.72;5103493;28;20091;-64
2023/04/25 01:08:09;;;;;;;21.85;9.25;;;;;;;14.05;46.74;150817.16;5112466;28;20080;-64
2023/04/25 01:10:35;;;;;;;18.52;9.18;;;;;;;14.06;47.26;150821.00;5121891;28;20044;-64
2023/04/25 01:13:00;;;;;;;22.05;9.15;;;;;;;14.14;47.37;150840.31;5104493;28;20028;-65
2023/04/25 01:15:26;;;;;;;15.40;9.05;;;;;;;14.12;46.70;150836.47;5123148;28;20031;-63
2023/04/25 01:17:52;;;;;;;17.40;8.20;;;;;;;14.14;47.65;150841.59;5124523;28;20020;-63
2023/04/25 01:20:22;;;;;;;16.90;8.93;;;;;;;14.19;48.39;150851.88;5124738;28;20073;-65
2023/04/25 01:22:49;;;;;;;12.50;9.00;;;;;;;14.17;47.41;150848.03;5119868;28;20103;-64
2023/04/25 01:25:14;;;;;;;21.58;8.98;;;;;;;14.15;48.48;150842.84;5104157;28;20068;-65
2023/04/25 01:27:40;;;;;;;12.15;8.77;;;;;;;14.18;48.41;150849.28;5122009;28;20023;-65
2023/04/25 01:30:07;;;;;;;18.48;10.00;;;;;;;14.19;48.19;150853.16;5124565;28;20035;-64
2023/04/25 01:32:38;;;;;;;16.67;10.25;;;;;;;14.19;46.92;150853.16;5124437;28;20028;-64
2023/04/25 01:35:09;;;;;;;21.73;10.05;;;;;;;14.10;49.27;150830.03;5124500;28;20028;-64
2023/04/25 01:37:42;;;;;;;13.82;9.32;;;;;;;14.05;48.11;150817.16;5121693;28;20034;-64
2023/04/25 01:40:10;;;;;;;16.08;8.90;;;;;;;13.97;48.70;150799.16;5104006;28;20047;-65
2023/04/25 01:42:38;;;;;;;15.07;9.45;;;;;;;14.13;47.32;150837.72;5123661;28;20252;-64
2023/04/25 01:45:04;;;;;;;16.20;8.75;;;;;;;13.95;48.07;150794.03;5108996;28;20050;-64
2023/04/25 01:47:30;;;;;;;14.40;8.50;;;;;;;13.99;47.94;150803.00;5114319;28;20032;-65
2023/04/25 01:49:56;;;;;;;15.85;9.60;;;;;;;14.01;48.70;150806.84;5118433;28;20028;-65
2023/04/25 01:52:21;;;;;;;17.85;9.20;;;;;;;14.01;47.92;150806.84;5104525;28;20232;-65
2023/04/25 01:54:48;;;;;;;16.25;9.32;;;;;;;13.97;49.05;150797.88;5124058;28;20045;-63
2023/04/25 01:57:14;;;;;;;16.65;8.93;;;;;;;13.92;48.68;150786.31;5102406;28;20028;-64
2023/04/25 01:59:40;;;;;;;17.45;8.93;;;;;;;13.88;48.84;150776.03;5103827;28;20062;-64
2023/04/25 02:02:06;;;;;;;15.57;9.23;;;;;;;13.96;49.48;150795.28;5110382;28;20038;-65
2023/04/25 02:04:32;;;;;;;20.00;9.50;;;;;;;14.00;49.67;150804.31;5121322;28;20201;-64
2023/04/25 02:06:58;;;;;;;13.70;8.65;;;;;;;13.96;49.09;150795.28;5103580;28;20032;-64
2023/04/25 02:09:23;;;;;;;17.52;9.32;;;;;;;14.00;49.76;150805.59;5121339;28;20020;-64
2023/04/25 02:11:50;;;;;;;16.05;9.63;;;;;;;13.93;49.46;150788.84;5110697;28;20094;-64
2023/04/25 02:14:15;;;;;;;16.23;9.00;;;;;;;13.95;49.50;150794.03;5111776;28;20028;-63
2023/04/25 02:16:43;;;;;;;16.27;9.05;;;;;;;13.97;49.77;150797.88;5123657;28;20106;-63
2023/04/25 02:19:09;;;;;;;14.35;9.00;;;;;;;13.96;49.52;150796.56;5103389;28;20039;-63
2023/04/25 02:21:35;;;;;;;18.15;9.20;;;;;;;13.98;50.41;150801.72;5122666;28;20127;-65
2023/04/25 02:24:01;;;;;;;17.27;9.13;;;;;;;14.00;49.72;150805.59;5109104;28;20035;-64
2023/04/25 02:26:27;;;;;;;17.88;8.80;;;;;;;14.05;49.49;150817.16;5112823;28;20026;-63
2023/04/25 02:28:52;;;;;;;19.13;9.73;;;;;;;14.04;49.84;150814.56;5118638;28;20087;-62
2023/04/25 02:31:18;;;;;;;14.30;9.02;;;;;;;14.03;51.04;150813.28;5106483;28;20307;-64
2023/04/25 02:33:44;;;;;;;15.65;9.13;;;;;;;14.04;49.62;150815.88;5104385;28;20031;-63
2023/04/25 02:36:10;;;;;;;13.77;8.73;;;;;;;14.03;50.11;150813.28;5123469;28;20050;-63
2023/04/25 02:38:36;;;;;;;14.57;8.82;;;;;;;14.13;48.90;150839.00;5123162;28;20300;-63
2023/04/25 02:41:01;;;;;;;17.63;9.15;;;;;;;14.19;49.39;150853.16;5117295;28;20310;-64
2023/04/25 02:43:27;;;;;;;14.30;8.93;;;;;;;14.21;49.53;150858.31;5104056;28;20291;-63
2023/04/25 02:45:52;;;;;;;16.65;9.50;;;;;;;14.28;49.62;150876.31;5123090;28;20031;-64
2023/04/25 02:48:18;;;;;;;18.02;8.52;;;;;;;14.26;50.36;150871.16;5106463;28;20033;-63
2023/04/25 02:50:44;;;;;;;18.55;9.13;;;;;;;14.26;50.45;150871.16;5114469;28;20034;-63
2023/04/25 02:53:10;;;;;;;15.40;9.02;;;;;;;14.38;49.13;150899.44;5115976;28;20328;-63
2023/04/25 02:55:36;;;;;;;20.48;10.00;;;;;;;14.41;49.03;150907.16;5104896;28;20067;-63
2023/04/25 02:58:01;;;;;;;18.05;9.20;;;;;;;14.43;48.28;150912.31;5123045;28;20300;-63
2023/04/25 03:00:27;;;;;;;19.77;9.85;;;;;;;14.10;48.79;150830.03;5104935;28;20058;-63
2023/04/25 03:02:53;;;;;;;20.92;9.27;;;;;;;14.10;49.26;150830.03;5115537;28;20038;-64
2023/04/25 03:05:19;;;;;;;19.98;9.25;;;;;;;14.25;48.75;150868.59;5114571;28;20023;-63
2023/04/25 03:07:45;;;;;;;16.88;8.77;;;;;;;14.17;49.27;150848.03;5117310;28;20200;-64
2023/04/25 03:10:11;;;;;;;15.43;9.77;;;;;;;14.25;49.00;150867.28;5102395;28;20216;-63
2023/04/25 03:12:37;;;;;;;21.63;9.50;;;;;;;14.40;49.19;150904.63;5121316;28;20063;-64
2023/04/25 03:15:03;;;;;;;19.67;9.98;;;;;;;14.72;47.58;150985.72;5122749;28;20035;-66
2023/04/25 03:17:29;;;;;;;14.98;9.05;;;;;;;14.82;47.61;151010.09;5121411;28;20305;-65
2023/04/25 03:19:55;;;;;;;18.63;8.23;;;;;;;15.05;47.85;151066.72;5122735;28;20046;-65
2023/04/25 03:22:21;;;;;;;17.80;9.38;;;;;;;15.09;47.67;151077.03;5104579;28;20279;-64
2023/04/25 03:24:47;;;;;;;23.20;9.30;;;;;;;15.27;47.24;151123.34;5102204;28;20100;-65
2023/04/25 03:27:13;;;;;;;20.27;9.80;;;;;;;15.12;47.29;151084.72;5117789;28;20090;-66
2023/04/25 03:29:40;;;;;;;17.73;9.88;;;;;;;15.35;47.74;151143.97;5111663;28;20036;-65
2023/04/25 03:32:06;;;;;;;21.45;9.55;;;;;;;15.54;46.83;151190.28;5112147;28;20038;-65
2023/04/25 03:34:31;;;;;;;23.38;11.85;;;;;;;15.73;47.18;151236.63;5122507;28;20047;-65
2023/04/25 03:36:57;;;;;;;20.63;10.25;;;;;;;15.64;47.35;151214.75;5104318;28;20073;-64
2023/04/25 03:39:22;;;;;;;17.20;9.70;;;;;;;15.32;47.90;151136.25;5122433;28;20065;-65
2023/04/25 03:41:48;;;;;;;16.40;11.05;;;;;;;15.61;47.95;151207.03;5100711;28;20044;-64
2023/04/25 03:44:14;;;;;;;13.70;9.20;;;;;;;15.89;47.19;151277.91;5102114;28;20089;-64
2023/04/25 03:46:40;;;;;;;20.30;9.35;;;;;;;16.08;46.15;151324.25;5091662;28;20032;-64
2023/04/25 03:49:05;;;;;;;21.45;9.10;;;;;;;16.53;45.52;151438.88;5122431;28;20082;-64
2023/04/25 03:51:31;;;;;;;22.27;9.35;;;;;;;16.70;44.65;151480.06;5104179;28;20094;-63
2023/04/25 03:53:56;;;;;;;20.65;9.60;;;;;;;17.04;44.69;151566.44;5102109;28;20059;-63
2023/04/25 03:56:22;;;;;;;19.63;8.38;;;;;;;16.92;44.75;151535.53;5109947;28;20033;-62
2023/04/25 03:58:48;;;;;;;15.45;9.25;;;;;;;16.94;45.57;151540.66;5121950;28;20103;-64
2023/04/25 04:01:14;;;;;;;23.30;9.20;;;;;;;16.76;45.02;151495.56;5122475;28;20027;-64
2023/04/25 04:03:39;;;;;;;30.88;10.38;;;;;;;16.73;46.05;151489.09;5122107;28;20016;-63
2023/04/25 04:06:07;;;;;;;19.27;9.23;;;;;;;16.69;45.52;151477.53;5108129;28;20042;-63
2023/04/25 04:08:33;;;;;;;17.77;9.13;;;;;;;16.48;45.84;151424.69;5102047;28;20094;-64
2023/04/25 04:10:59;;;;;;;18.55;9.23;;;;;;;16.50;46.20;151429.81;5106817;28;20592;-64
2023/04/25 04:13:29;;;;;;;18.63;9.73;;;;;;;16.21;47.18;151358.97;5122536;28;20031;-64
2023/04/25 04:15:55;;;;;;;24.50;10.07;;;;;;;15.90;47.61;151279.16;5102073;28;20216;-64
2023/04/25 04:18:21;;;;;;;18.98;8.73;;;;;;;16.31;46.97;151382.19;5118046;28;20063;-64
2023/04/25 04:20:47;;;;;;;23.50;9.82;;;;;;;16.12;47.62;151334.50;5110689;28;20231;-63
2023/04/25 04:23:13;;;;;;;26.95;9.65;;;;;;;16.21;48.78;151358.97;5108269;28;20073;-65
2023/04/25 04:25:40;;;;;;;16.60;9.98;;;;;;;15.99;48.29;151303.63;5102264;28;20061;-64
2023/04/25 04:28:06;;;;;;;23.33;9.50;;;;;;;16.17;48.33;151347.41;5103938;28;20036;-64
2023/04/25 04:30:33;;;;;;;26.52;12.95;;;;;;;16.07;50.12;151322.94;5104418;28;20047;-63
2023/04/25 04:32:58;;;;;;;26.83;10.90;;;;;;;15.98;49.11;151301.06;5112336;28;20106;-65
2023/04/25 04:35:24;;;;;;;19.73;9.93;;;;;;;16.19;48.42;151352.59;5105142;28;20094;-63
2023/04/25 04:37:50;;;;;;;31.60;11.25;;;;;;;16.14;48.53;151339.69;5086962;28;20051;-63
2023/04/25 04:40:16;;;;;;;25.77;11.10;;;;;;;16.09;49.65;151326.78;5105260;28;20054;-64
2023/04/25 04:42:42;;;;;;;23.33;11.00;;;;;;;16.08;49.36;151325.53;5105579;28;20350;-65
2023/04/25 04:45:10;;;;;;;21.95;10.80;;;;;;;16.30;48.84;151380.88;5105054;28;20305;-66
2023/04/25 04:47:36;;;;;;;24.27;9.95;;;;;;;16.29;48.39;151377.00;5122107;28;20069;-66
2023/04/25 04:50:03;;;;;;;19.60;10.23;;;;;;;16.16;48.34;151346.13;5125080;28;20023;-67
2023/04/25 04:52:29;;;;;;;20.77;10.45;;;;;;;16.42;47.97;151409.22;5123697;28;20020;-65
2023/04/25 04:54:55;;;;;;;24.10;10.00;;;;;;;16.20;48.40;151355.13;5124890;28;20041;-72
2023/04/25 04:57:21;;;;;;;26.55;10.27;;;;;;;16.29;49.12;151378.34;5124878;28;20027;-66
2023/04/25 04:59:46;;;;;;;18.15;9.90;;;;;;;16.37;48.44;151397.63;5124963;28;20047;-64
2023/04/25 05:02:12;;;;;;;28.42;11.95;;;;;;;16.74;47.48;151491.69;5118815;28;20024;-64
2023/04/25 05:04:37;;;;;;;22.98;10.75;;;;;;;16.98;46.92;151550.97;5105851;28;20077;-64
2023/04/25 05:07:03;;;;;;;22.27;10.35;;;;;;;17.20;45.46;151605.09;5125005;28;20030;-65
2023/04/25 05:09:29;;;;;;;23.13;12.45;;;;;;;17.98;44.25;151801.09;5124735;28;20026;-66
2023/04/25 05:11:54;;;;;;;22.50;10.18;;;;;;;18.34;43.64;151890.06;5112616;28;20030;-66
2023/04/25 05:14:21;;;;;;;24.02;10.10;;;;;;;18.55;42.70;151944.22;5111641;28;20054;-66
2023/04/25 05:16:47;;;;;;;24.85;10.18;;;;;;;18.79;42.77;152004.88;5122176;28;20032;-66
2023/04/25 05:19:13;;;;;;;17.08;9.25;;;;;;;18.66;42.92;151971.34;5124035;28;20040;-66
2023/04/25 05:21:38;;;;;;;22.85;10.18;;;;;;;18.63;42.69;151964.88;5106423;28;20095;-65
2023/04/25 05:24:04;;;;;;;22.42;9.40;;;;;;;18.67;41.88;151973.94;5103686;28;20210;-66
2023/04/25 05:26:30;;;;;;;25.95;9.38;;;;;;;18.74;42.12;151990.69;5111785;28;20322;-65
2023/04/25 05:28:59;;;;;;;18.27;9.35;;;;;;;18.66;42.22;151971.34;5120429;28;20028;-65
2023/04/25 05:31:25;;;;;;;24.48;9.60;;;;;;;18.39;43.22;151904.25;5108206;28;20028;-67
2023/04/25 05:33:51;;;;;;;20.25;8.98;;;;;;;18.83;42.11;152013.91;5123966;28;20444;-64
2023/04/25 05:36:17;;;;;;;17.90;9.50;;;;;;;18.25;42.06;151868.16;5124362;28;20231;-64
2023/04/25 05:38:43;;;;;;;20.50;8.70;;;;;;;18.22;42.65;151860.41;5113001;28;20024;-67
2023/04/25 05:41:08;;;;;;;15.80;7.75;;;;;;;18.35;41.84;151893.94;5109071;28;20205;-64
2023/04/25 05:43:34;;;;;;;23.35;8.55;;;;;;;18.66;41.25;151971.34;5123654;28;20030;-65
2023/04/25 05:46:00;;;;;;;24.52;8.32;;;;;;;18.86;41.26;152020.38;5103749;28;20328;-67
2023/04/25 05:48:25;;;;;;;21.65;9.13;;;;;;;19.22;41.10;152110.75;5119785;28;20019;-66
2023/04/25 05:50:51;;;;;;;21.73;9.50;;;;;;;19.30;41.17;152132.66;5112725;28;20434;-68
2023/04/25 05:53:17;;;;;;;22.02;9.32;;;;;;;19.23;41.46;152114.59;5109756;28;20075;-64
2023/04/25 05:55:43;;;;;;;14.45;9.07;;;;;;;18.50;41.69;151930.03;5122235;28;20058;-66
2023/04/25 05:58:09;;;;;;;18.80;9.30;;;;;;;18.35;42.44;151893.94;5103317;28;20039;-65
2023/04/25 06:00:35;;;;;;;14.77;8.70;;;;;;;18.97;42.03;152048.81;5103166;28;20020;-65
2023/04/25 06:03:01;;;;;;;20.52;9.68;;;;;;;19.37;41.87;152148.16;5097542;28;20300;-66
2023/04/25 06:05:26;;;;;;;22.20;8.52;;;;;;;19.01;41.50;152059.16;5105688;28;20299;-65
2023/04/25 06:07:52;;;;;;;29.38;10.20;;;;;;;19.34;40.27;152141.72;5123396;28;20020;-65
2023/04/25 06:10:18;;;;;;;18.58;9.43;;;;;;;19.34;40.62;152140.41;5123765;28;20019;-66
2023/04/25 06:12:44;;;;;;;50.65;27.17;;;;;;;19.22;40.73;152110.75;5104927;28;20036;-68
2023/04/25 06:15:10;;;;;;;26.02;13.57;;;;;;;18.66;41.46;151970.06;5108543;28;20192;-65
2023/04/25 06:17:35;;;;;;;18.73;8.52;;;;;;;19.09;39.48;152079.75;5117715;28;20027;-65
2023/04/25 06:20:03;;;;;;;17.25;8.00;;;;;;;19.56;39.93;152197.19;5123434;28;20034;-66
2023/04/25 06:22:29;;;;;;;15.73;8.15;;;;;;;19.21;39.05;152108.16;5123516;28;20019;-64
2023/04/25 06:24:57;;;;;;;13.98;8.13;;;;;;;19.48;38.97;152177.84;5103591;28;20066;-66
2023/04/25 06:27:22;;;;;;;19.98;7.15;;;;;;;20.08;38.96;152326.34;5118234;28;20031;-66
2023/04/25 06:29:48;;;;;;;14.02;7.38;;;;;;;19.89;38.65;152279.88;5112466;28;20089;-65
2023/04/25 06:32:14;;;;;;;13.55;6.97;;;;;;;20.03;38.24;152313.47;5114235;28;20364;-65
2023/04/25 06:34:39;;;;;;;18.70;6.70;;;;;;;20.11;37.66;152335.41;5101344;28;20024;-67
2023/04/25 06:37:05;;;;;;;12.15;6.20;;;;;;;19.66;37.13;152223.00;5117219;28;20028;-65
2023/04/25 06:39:30;;;;;;;13.13;6.95;;;;;;;20.17;37.65;152349.63;5106382;28;20287;-65
2023/04/25 06:41:56;;;;;;;12.95;6.18;;;;;;;20.57;36.72;152450.34;5113962;28;20023;-65
2023/04/25 06:44:23;;;;;;;15.70;6.47;;;;;;;19.73;37.58;152239.81;5116197;28;20028;-65
2023/04/25 06:46:49;;;;;;;13.85;6.72;;;;;;;20.15;37.03;152344.44;5104390;28;20078;-65
2023/04/25 06:49:15;;;;;;;19.60;6.53;;;;;;;19.73;37.66;152239.81;5122647;28;20233;-66
2023/04/25 06:51:41;;;;;;;14.13;6.50;;;;;;;19.63;37.88;152214.00;5121797;28;20027;-65
2023/04/25 06:54:06;;;;;;;12.57;6.88;;;;;;;19.83;37.80;152264.38;5110006;28;20553;-66
2023/04/25 06:56:32;;;;;;;11.45;5.85;;;;;;;19.79;37.27;152255.34;5102382;28;20225;-65
2023/04/25 06:58:58;;;;;;;13.85;5.30;;;;;;;20.17;36.86;152349.63;5105389;28;20323;-65
2023/04/25 07:01:23;;;;;;;13.95;5.55;;;;;;;20.78;36.74;152502.03;5123070;28;20256;-65
2023/04/25 07:03:49;;;;;;;14.57;5.63;;;;;;;21.20;35.52;152609.28;5103820;28;20405;-68
2023/04/25 07:06:15;;;;;;;13.02;6.30;;;;;;;21.06;35.79;152571.84;5102360;28;20032;-68
2023/04/25 07:08:40;;;;;;;13.57;6.25;;;;;;;21.46;34.86;152673.94;5102331;28;20354;-68
2023/04/25 07:11:06;;;;;;;11.00;5.90;;;;;;;21.24;34.72;152617.09;5104783;28;20046;-67
2023/04/25 07:13:35;;;;;;;10.18;5.85;;;;;;;21.38;35.93;152653.25;5084464;28;20557;-67
2023/04/25 07:16:00;;;;;;;14.38;6.18;;;;;;;21.78;34.91;152754.13;5121912;28;20019;-68
2023/04/25 07:18:26;;;;;;;12.35;6.55;;;;;;;21.37;35.32;152650.66;5121833;28;20023;-68
2023/04/25 07:20:52;;;;;;;18.20;6.80;;;;;;;21.79;34.45;152755.41;5111782;28;20032;-67
2023/04/25 07:23:17;;;;;;;18.60;6.32;;;;;;;22.64;34.38;152968.81;5107027;28;20040;-67
2023/04/25 07:25:43;;;;;;;13.40;6.03;;;;;;;22.89;33.91;153032.22;5103954;28;20024;-67
2023/04/25 07:28:08;;;;;;;11.25;5.82;;;;;;;20.69;34.34;152481.41;5122401;28;20355;-67
2023/04/25 07:30:34;;;;;;;11.52;5.78;;;;;;;21.07;34.46;152574.44;5105887;28;20262;-67
2023/04/25 07:33:00;;;;;;;11.18;6.18;;;;;;;20.69;34.09;152481.41;5116142;28;20043;-67
2023/04/25 07:35:26;;;;;;;9.75;4.80;;;;;;;20.72;33.16;152487.84;5122071;28;20054;-67
2023/04/25 07:37:51;;;;;;;8.98;5.18;;;;;;;20.32;34.09;152388.38;5120119;28;20273;-67
2023/04/25 07:40:17;;;;;;;10.70;5.00;;;;;;;20.44;34.80;152418.06;5113400;28;20100;-68
2023/04/25 07:42:43;;;;;;;13.00;5.43;;;;;;;20.03;35.64;152313.47;5120926;28;20023;-67
2023/04/25 07:45:09;;;;;;;11.90;5.90;;;;;;;20.41;35.85;152410.31;5121858;28;20050;-67
2023/04/25 07:47:35;;;;;;;9.43;5.60;;;;;;;20.54;35.82;152442.59;5121634;28;20087;-67
2023/04/25 07:50:01;;;;;;;8.93;5.60;;;;;;;20.64;35.06;152468.44;5122014;28;20088;-66
2023/04/25 07:52:26;;;;;;;10.55;5.85;;;;;;;20.37;35.55;152399.97;5121713;28;20043;-67
2023/04/25 07:54:52;;;;;;;15.38;5.28;;;;;;;20.76;35.02;152496.91;5121828;28;20059;-67
2023/04/25 07:57:19;;;;;;;9.50;5.57;;;;;;;19.66;37.68;152223.00;5121514;28;20059;-66
2023/04/25 07:59:45;;;;;;;13.15;6.38;;;;;;;20.16;37.16;152348.28;5121196;28;20043;-68
2023/04/25 08:02:11;;;;;;;11.25;5.82;;;;;;;20.63;37.89;152465.84;5117771;28;20073;-67
2023/04/25 08:04:36;;;;;;;10.85;5.10;;;;;;;20.39;36.90;152405.13;5124817;28;20020;-67
2023/04/25 08:07:02;;;;;;;13.90;5.88;;;;;;;20.09;36.49;152328.94;5118895;28;20030;-67
2023/04/25 08:09:28;;;;;;;15.40;6.10;;;;;;;19.66;37.73;152221.75;5110002;28;20208;-67
2023/04/25 08:11:53;;;;;;;12.50;5.05;;;;;;;19.98;37.45;152303.13;5121642;28;20094;-67
2023/04/25 08:14:19;;;;;;;10.25;5.60;;;;;;;20.27;36.62;152374.16;5125632;28;20039;-67
2023/04/25 08:16:45;;;;;;;10.95;5.95;;;;;;;20.38;36.90;152402.56;5125369;28;20312;-61
2023/04/25 08:19:10;;;;;;;9.98;6.13;;;;;;;20.53;36.52;152441.28;5126039;28;20028;-62
2023/04/25 08:21:36;;;;;;;10.25;5.72;;;;;;;20.35;37.09;152394.78;5125685;28;20032;-61
2023/04/25 08:24:02;;;;;;;11.57;5.03;;;;;;;20.80;36.73;152508.50;5126013;28;20034;-61
2023/04/25 08:26:28;;;;;;;9.38;5.22;;;;;;;20.58;35.93;152451.63;5104219;28;20047;-61
2023/04/25 08:28:54;;;;;;;11.10;5.07;;;;;;;20.40;36.69;152406.44;5116214;28;20023;-61
2023/04/25 08:31:20;;;;;;;10.65;5.20;;;;;;;20.10;37.18;152332.81;5125023;28;20048;-61
2023/04/25 08:33:46;;;;;;;11.32;5.18;;;;;;;20.59;36.89;152454.22;5085850;28;20026;-62
2023/04/25 08:36:12;;;;;;;8.43;5.13;;;;;;;20.39;36.26;152405.13;5125500;28;20043;-61
2023/04/25 08:38:37;;;;;;;8.45;4.88;;;;;;;20.25;36.83;152368.97;5125368;28;20024;-61
2023/04/25 08:41:05;;;;;;;8.13;4.60;;;;;;;20.38;37.20;152402.56;5122831;28;20285;-62
2023/04/25 08:43:30;;;;;;;13.13;5.82;;;;;;;20.53;37.18;152441.28;5104972;28;20027;-61
2023/04/25 08:46:00;;;;;;;13.27;5.05;;;;;;;20.80;36.49;152507.25;5123766;28;20056;-62
2023/04/25 08:48:28;;;;;;;9.30;4.30;;;;;;;20.91;37.23;152535.66;5111395;28;20504;-62
2023/04/25 08:50:55;;;;;;;9.88;5.43;;;;;;;21.17;36.44;152601.53;5115223;28;20040;-62
2023/04/25 08:53:32;;;;;;;9.23;5.05;;;;;;;21.00;36.26;152557.63;5120642;28;20071;-61
2023/04/25 08:56:01;;;;;;;10.27;5.38;;;;;;;21.14;36.56;152593.78;5107363;28;20043;-62
2023/04/25 08:58:27;;;;;;;14.00;5.05;;;;;;;21.64;36.15;152717.94;5125408;28;20035;-61
2023/04/25 09:00:53;;;;;;;8.68;4.80;;;;;;;21.80;35.23;152758.00;5106931;28;20100;-61
2023/04/25 09:03:19;;;;;;;10.25;5.35;;;;;;;20.92;36.39;152538.25;5118370;28;20039;-61
2023/04/25 09:05:45;;;;;;;11.40;4.97;;;;;;;20.75;36.93;152495.63;5117518;28;20077;-62
2023/04/25 09:08:10;;;;;;;9.48;5.68;;;;;;;20.70;37.02;152482.69;5109049;28;20047;-62
2023/04/25 09:10:37;;;;;;;11.00;4.60;;;;;;;20.93;36.76;152539.53;5125224;28;20031;-62
2023/04/25 09:13:08;;;;;;;6.85;5.13;;;;;;;21.24;36.75;152617.09;5115364;28;20296;-62
2023/04/25 09:15:47;;;;;;;12.17;5.03;;;;;;;20.97;36.15;152549.88;5124126;28;20080;-62
2023/04/25 09:18:12;;;;;;;14.07;6.18;;;;;;;21.14;36.61;152592.53;5122435;28;20527;-61
2023/04/25 09:20:44;;;;;;;9.30;6.10;;;;;;;21.57;35.77;152699.84;5124890;28;20019;-62
2023/04/25 09:23:09;;;;;;;;;;;;;;;21.64;36.46;152717.94;5122712;28;20028;-61
2023/04/25 09:25:38;;;;;;;9.48;6.10;;;;;;;21.28;34.87;152627.44;5104280;28;19904;-62
2023/04/25 09:28:06;;;;;;;12.70;6.82;;;;;;;21.61;35.31;152711.47;5120869;28;20035;-61
2023/04/25 09:30:35;;;;;;;11.88;6.57;;;;;;;21.85;34.27;152772.22;5103776;28;20039;-62
2023/04/25 09:33:08;;;;;;;11.90;7.10;;;;;;;21.17;34.98;152600.28;5102458;28;20028;-61
2023/04/25 09:35:42;;;;;;;10.98;6.80;;;;;;;21.41;35.82;152661.00;5122144;28;20024;-62
2023/04/25 09:38:12;;;;;;;15.10;8.15;;;;;;;21.31;34.62;152636.44;5124247;28;20069;-62
2023/04/25 09:40:46;;;;;;;11.88;5.47;;;;;;;20.71;34.85;152485.28;5124167;28;20039;-62
2023/04/25 09:43:22;;;;;;;5.03;3.97;;;;;;;20.88;33.37;152527.91;5124547;28;20032;-62
2023/04/25 09:45:48;;;;;;;7.70;4.35;;;;;;;20.04;35.40;152316.00;5123946;28;20023;-62
2023/04/25 09:48:24;;;;;;;9.50;4.95;;;;;;;20.72;34.75;152487.84;5124094;28;20101;-62
2023/04/25 09:51:14;;;;;;;9.70;4.15;;;;;;;20.64;34.81;152467.16;5115299;28;20039;-61
2023/04/25 09:53:42;;;;;;;12.18;3.63;;;;;;;20.06;34.06;152322.47;5111124;28;20055;-62
2023/04/25 09:56:10;;;;;;;6.68;3.75;;;;;;;20.16;34.52;152347.03;5124570;28;20043;-61
2023/04/25 09:58:38;;;;;;;8.95;3.53;;;;;;;20.54;34.15;152442.59;5124049;28;20046;-62
2023/04/25 10:01:06;;;;;;;7.10;3.75;;;;;;;19.95;34.23;152294.06;5086860;28;20188;-61
2023/04/25 10:03:36;;;;;;;6.90;3.60;;;;;;;20.20;34.39;152357.34;5103649;28;20329;-63
2023/04/25 10:06:06;;;;;;;4.13;3.05;;;;;;;20.30;34.52;152383.19;5103553;28;20099;-61
2023/04/25 10:08:37;;;;;;;6.78;3.78;;;;;;;19.90;34.79;152281.19;5111505;28;20077;-61
2023/04/25 10:11:08;;;;;;;6.00;3.20;;;;;;;19.80;34.41;152257.94;5119734;28;20473;-61
2023/04/25 10:13:35;;;;;;;5.25;3.55;;;;;;;19.61;35.50;152210.13;5101505;28;20027;-61
2023/04/25 10:16:04;;;;;;;6.40;4.07;;;;;;;19.51;36.10;152183.00;5121975;28;20208;-61
2023/04/25 10:18:31;;;;;;;6.45;3.67;;;;;;;19.23;36.21;152114.59;5119622;28;20042;-61
2023/04/25 10:20:59;;;;;;;6.22;4.00;;;;;;;18.89;36.20;152029.44;5123266;28;20031;-62
2023/04/25 10:23:26;;;;;;;9.13;3.95;;;;;;;19.15;36.31;152093.94;5121763;28;20091;-61
2023/04/25 10:25:52;;;;;;;5.70;3.28;;;;;;;19.30;36.01;152132.66;5104182;28;20026;-62
2023/04/25 10:28:19;;;;;;;4.68;3.40;;;;;;;19.05;36.89;152069.41;5121885;28;20027;-64
2023/04/25 10:31:07;;;;;;;7.72;3.67;;;;;;;19.12;36.22;152087.47;5121407;28;20243;-62
2023/04/25 10:33:35;;;;;;;8.80;4.13;;;;;;;19.29;36.35;152130.06;5117113;28;20072;-60
2023/04/25 10:36:17;;;;;;;9.00;4.00;;;;;;;19.15;36.38;152093.94;5084968;28;20295;-60
2023/04/25 10:38:43;;;;;;;7.45;3.45;;;;;;;19.29;36.17;152130.06;5114199;28;20027;-61
2023/04/25 10:41:11;;;;;;;6.55;3.17;;;;;;;18.83;37.17;152013.91;5117379;28;20031;-61
2023/04/25 10:43:41;;;;;;;7.90;3.83;;;;;;;19.12;36.59;152087.47;5121435;28;20103;-61
2023/04/25 10:46:23;;;;;;;5.40;3.55;;;;;;;19.59;36.28;152203.66;5123188;28;20038;-63
2023/04/25 10:48:50;;;;;;;;;;;;;;;19.68;35.03;152226.88;5123529;28;20051;-61
2023/04/25 10:51:19;;;;;;;5.93;3.42;;;;;;;20.00;34.99;152307.00;5122955;28;19903;-61
2023/04/25 10:53:46;;;;;;;7.40;3.35;;;;;;;20.10;34.66;152332.81;5123114;28;20205;-63
2023/04/25 10:56:16;;;;;;;7.93;3.70;;;;;;;20.10;33.60;152332.81;5123215;28;20040;-62
2023/04/25 10:58:44;;;;;;;10.65;3.55;;;;;;;20.20;34.09;152357.34;5123058;28;20042;-61
2023/04/25 11:01:10;;;;;;;7.93;3.53;;;;;;;19.88;34.52;152276.00;5103798;28;20039;-63
2023/04/25 11:03:43;;;;;;;6.93;3.90;;;;;;;19.25;34.96;152119.78;5105046;28;20057;-62
2023/04/25 11:06:37;;;;;;;5.10;3.53;;;;;;;19.93;34.32;152288.94;5123479;28;20023;-63
2023/04/25 11:09:10;;;;;;;9.45;4.00;;;;;;;19.83;34.68;152265.66;5085292;28;20324;-62
2023/04/25 11:11:37;;;;;;;5.80;3.60;;;;;;;20.22;34.56;152362.50;5108793;28;20026;-62
2023/04/25 11:14:02;;;;;;;5.72;4.03;;;;;;;19.41;35.66;152159.78;5123833;28;20023;-63
2023/04/25 11:16:28;;;;;;;7.03;4.03;;;;;;;19.97;34.73;152300.53;5123646;28;20197;-62
2023/04/25 11:18:57;;;;;;;4.72;3.33;;;;;;;19.56;34.77;152195.94;5106462;28;20052;-62